sensor_id;sensor_type;location;lat;lon;timestamp;temperature;humidity
33927;DHT22;20485;50.992;5.550;2022-12-18T05:24:40;-9.50;99.90
33927;DHT22;20485;50.992;5.550;2022-12-18T05:27:07;-9.50;99.90
33927;DHT22;20485;50.992;5.550;2022-12-18T05:29:32;-9.50;99.90
33927;DHT22;20485;50.992;5.550;2022-12-18T05:31:59;-9.50;99.90
33927;DHT22;20485;50.992;5.550;2022-12-18T05:34:24;-9.50;99.90
33927;DHT22;20485;50.992;5.550;2022-12-18T05:36:50;-9.50;99.90
33927;DHT22;20485;50.992;5.550;2022-12-18T05:39:16;-9.60;99.90
33927;DHT22;20485;50.992;5.550;2022-12-18T05:53:38;-9.60;99.90
33927;DHT22;20485;50.992;5.550;2022-12-18T05:56:06;-7.30;99.90
33927;DHT22;20485;50.992;5.550;2022-12-18T05:58:32;-9.60;99.90
33927;DHT22;20485;50.992;5.550;2022-12-18T06:01:05;-9.60;99.90
33927;DHT22;20485;50.992;5.550;2022-12-18T06:03:31;-9.60;99.90
33927;DHT22;20485;50.992;5.550;2022-12-18T06:05:56;-9.60;99.90
33927;DHT22;20485;50.992;5.550;2022-12-18T06:08:22;-9.60;99.90
33927;DHT22;20485;50.992;5.550;2022-12-18T06:10:51;-9.60;99.90
33927;DHT22;20485;50.992;5.550;2022-12-18T06:13:20;-9.50;99.90
33927;DHT22;20485;50.992;5.550;2022-12-18T06:15:46;-9.50;99.90
33927;DHT22;20485;50.992;5.550;2022-12-18T06:18:11;-9.50;99.90
33927;DHT22;20485;50.992;5.550;2022-12-18T06:20:37;-9.50;99.90
33927;DHT22;20485;50.992;5.550;2022-12-18T06:23:05;-9.60;99.90
33927;DHT22;20485;50.992;5.550;2022-12-18T06:25:31;-9.60;99.90
33927;DHT22;20485;50.992;5.550;2022-12-18T06:27:58;-9.60;99.90
33927;DHT22;20485;50.992;5.550;2022-12-18T06:30:24;-9.70;99.90
33927;DHT22;20485;50.992;5.550;2022-12-18T06:32:49;-9.70;99.90
33927;DHT22;20485;50.992;5.550;2022-12-18T06:35:15;-9.60;99.90
33927;DHT22;20485;50.992;5.550;2022-12-18T06:37:41;-9.60;99.90
33927;DHT22;20485;50.992;5.550;2022-12-18T06:40:07;-9.60;99.90
33927;DHT22;20485;50.992;5.550;2022-12-18T06:42:32;-9.60;99.90
33927;DHT22;20485;50.992;5.550;2022-12-18T06:44:58;-9.60;99.90
33927;DHT22;20485;50.992;5.550;2022-12-18T06:47:25;-9.70;99.90
33927;DHT22;20485;50.992;5.550;2022-12-18T06:49:50;-9.70;99.90
33927;DHT22;20485;50.992;5.550;2022-12-18T06:52:16;-9.70;99.90
33927;DHT22;20485;50.992;5.550;2022-12-18T06:54:42;-9.70;99.90
33927;DHT22;20485;50.992;5.550;2022-12-18T06:57:08;-9.70;99.90
33927;DHT22;20485;50.992;5.550;2022-12-18T06:59:33;-9.70;99.90
33927;DHT22;20485;50.992;5.550;2022-12-18T07:01:59;-9.70;99.90
33927;DHT22;20485;50.992;5.550;2022-12-18T07:04:31;-9.70;99.90
33927;DHT22;20485;50.992;5.550;2022-12-18T07:06:57;-9.70;99.90
33927;DHT22;20485;50.992;5.550;2022-12-18T07:09:23;-9.70;99.90
33927;DHT22;20485;50.992;5.550;2022-12-18T07:11:49;-9.70;99.90
33927;DHT22;20485;50.992;5.550;2022-12-18T07:14:14;-9.70;99.90
33927;DHT22;20485;50.992;5.550;2022-12-18T07:16:40;-9.60;99.90
33927;DHT22;20485;50.992;5.550;2022-12-18T07:19:06;-9.70;99.90
33927;DHT22;20485;50.992;5.550;2022-12-18T07:21:31;-9.60;99.90
33927;DHT22;20485;50.992;5.550;2022-12-18T07:23:57;-9.60;99.90
33927;DHT22;20485;50.992;5.550;2022-12-18T07:26:23;-9.60;99.90
33927;DHT22;20485;50.992;5.550;2022-12-18T07:28:49;-9.50;99.90
33927;DHT22;20485;50.992;5.550;2022-12-18T07:31:20;-9.50;99.90
33927;DHT22;20485;50.992;5.550;2022-12-18T07:33:46;-9.50;99.90
33927;DHT22;20485;50.992;5.550;2022-12-18T07:36:12;-9.40;99.90
33927;DHT22;20485;50.992;5.550;2022-12-18T07:38:38;-9.30;99.90
33927;DHT22;20485;50.992;5.550;2022-12-18T07:41:09;-9.30;99.90
33927;DHT22;20485;50.992;5.550;2022-12-18T07:43:36;-9.20;99.90
33927;DHT22;20485;50.992;5.550;2022-12-18T07:46:02;-9.20;99.90
33927;DHT22;20485;50.992;5.550;2022-12-18T07:48:28;-9.10;99.90
33927;DHT22;20485;50.992;5.550;2022-12-18T07:50:58;-9.00;99.90
33927;DHT22;20485;50.992;5.550;2022-12-18T07:53:24;-9.00;99.90
33927;DHT22;20485;50.992;5.550;2022-12-18T07:55:55;-9.00;99.90
33927;DHT22;20485;50.992;5.550;2022-12-18T07:58:21;-9.00;99.90
33927;DHT22;20485;50.992;5.550;2022-12-18T08:00:47;-9.10;99.90
33927;DHT22;20485;50.992;5.550;2022-12-18T08:03:12;-8.90;99.90
33927;DHT22;20485;50.992;5.550;2022-12-18T08:05:38;-8.90;99.90
33927;DHT22;20485;50.992;5.550;2022-12-18T08:08:04;-8.80;99.90
33927;DHT22;20485;50.992;5.550;2022-12-18T08:10:30;-8.80;99.90
33927;DHT22;20485;50.992;5.550;2022-12-18T08:12:56;-8.60;99.90
33927;DHT22;20485;50.992;5.550;2022-12-18T08:15:22;-8.60;99.90
33927;DHT22;20485;50.992;5.550;2022-12-18T08:17:47;-8.60;99.90
33927;DHT22;20485;50.992;5.550;2022-12-18T08:20:13;-8.50;99.90
33927;DHT22;20485;50.992;5.550;2022-12-18T08:22:44;-8.50;99.90
33927;DHT22;20485;50.992;5.550;2022-12-18T08:25:09;-8.40;99.90
33927;DHT22;20485;50.992;5.550;2022-12-18T08:27:35;-8.40;99.90
33927;DHT22;20485;50.992;5.550;2022-12-18T08:30:02;-8.30;99.90
33927;DHT22;20485;50.992;5.550;2022-12-18T08:32:29;-8.30;99.90
33927;DHT22;20485;50.992;5.550;2022-12-18T08:34:55;-8.20;99.90
33927;DHT22;20485;50.992;5.550;2022-12-18T08:37:20;-8.20;99.90
33927;DHT22;20485;50.992;5.550;2022-12-18T08:39:46;-8.00;99.90
33927;DHT22;20485;50.992;5.550;2022-12-18T08:42:11;-7.90;99.90
33927;DHT22;20485;50.992;5.550;2022-12-18T08:44:55;-7.90;99.90
33927;DHT22;20485;50.992;5.550;2022-12-18T08:47:21;-7.90;99.90
33927;DHT22;20485;50.992;5.550;2022-12-18T08:49:47;-7.80;99.90
33927;DHT22;20485;50.992;5.550;2022-12-18T08:52:12;-7.70;99.90
33927;DHT22;20485;50.992;5.550;2022-12-18T08:54:38;-7.60;99.90
33927;DHT22;20485;50.992;5.550;2022-12-18T08:57:03;-7.50;99.90
33927;DHT22;20485;50.992;5.550;2022-12-18T08:59:29;-7.50;99.90
33927;DHT22;20485;50.992;5.550;2022-12-18T09:01:55;-7.30;99.90
33927;DHT22;20485;50.992;5.550;2022-12-18T09:04:21;-7.30;99.90
33927;DHT22;20485;50.992;5.550;2022-12-18T09:06:47;-7.20;99.90
33927;DHT22;20485;50.992;5.550;2022-12-18T09:09:12;-7.10;99.90
33927;DHT22;20485;50.992;5.550;2022-12-18T09:11:38;-7.00;99.90
33927;DHT22;20485;50.992;5.550;2022-12-18T09:14:04;-6.90;99.90
33927;DHT22;20485;50.992;5.550;2022-12-18T09:16:31;-6.80;99.90
33927;DHT22;20485;50.992;5.550;2022-12-18T09:18:58;-6.70;99.90
33927;DHT22;20485;50.992;5.550;2022-12-18T09:21:30;-6.70;99.90
33927;DHT22;20485;50.992;5.550;2022-12-18T09:23:56;-6.60;99.90
33927;DHT22;20485;50.992;5.550;2022-12-18T09:26:23;-6.50;99.90
33927;DHT22;20485;50.992;5.550;2022-12-18T09:28:49;-6.50;99.90
33927;DHT22;20485;50.992;5.550;2022-12-18T09:31:16;-6.40;99.90
33927;DHT22;20485;50.992;5.550;2022-12-18T09:33:42;-6.30;99.90
33927;DHT22;20485;50.992;5.550;2022-12-18T09:36:09;-6.20;99.90
33927;DHT22;20485;50.992;5.550;2022-12-18T09:38:36;-6.10;99.90
33927;DHT22;20485;50.992;5.550;2022-12-18T09:41:30;-6.00;99.90
33927;DHT22;20485;50.992;5.550;2022-12-18T09:44:11;-5.90;99.90
33927;DHT22;20485;50.992;5.550;2022-12-18T09:46:44;-5.90;99.90
33927;DHT22;20485;50.992;5.550;2022-12-18T09:49:14;-5.80;99.90
33927;DHT22;20485;50.992;5.550;2022-12-18T09:51:52;-5.80;99.90
33927;DHT22;20485;50.992;5.550;2022-12-18T09:54:44;-5.70;99.90
33927;DHT22;20485;50.992;5.550;2022-12-18T09:57:18;-5.50;99.90
33927;DHT22;20485;50.992;5.550;2022-12-18T09:59:54;-5.50;99.90
33927;DHT22;20485;50.992;5.550;2022-12-18T10:02:22;-5.40;99.90
33927;DHT22;20485;50.992;5.550;2022-12-18T10:05:07;-5.40;99.90
33927;DHT22;20485;50.992;5.550;2022-12-18T10:07:55;-5.40;99.90
33927;DHT22;20485;50.992;5.550;2022-12-18T10:10:46;-5.20;99.90
33927;DHT22;20485;50.992;5.550;2022-12-18T10:16:06;-5.00;99.90
33927;DHT22;20485;50.992;5.550;2022-12-18T10:21:23;-5.00;99.90
33927;DHT22;20485;50.992;5.550;2022-12-18T10:26:23;-4.80;99.90
33927;DHT22;20485;50.992;5.550;2022-12-18T10:28:49;-4.60;99.90
33927;DHT22;20485;50.992;5.550;2022-12-18T10:31:21;-4.50;99.90
33927;DHT22;20485;50.992;5.550;2022-12-18T10:33:47;-4.40;99.90
33927;DHT22;20485;50.992;5.550;2022-12-18T10:36:13;-4.50;99.90
33927;DHT22;20485;50.992;5.550;2022-12-18T10:38:39;-4.40;99.90
33927;DHT22;20485;50.992;5.550;2022-12-18T10:41:23;-4.50;99.90
33927;DHT22;20485;50.992;5.550;2022-12-18T10:44:24;-4.40;99.90
33927;DHT22;20485;50.992;5.550;2022-12-18T10:47:03;-4.30;99.90
33927;DHT22;20485;50.992;5.550;2022-12-18T10:49:32;-4.30;99.90
33927;DHT22;20485;50.992;5.550;2022-12-18T10:52:11;-4.30;99.90
33927;DHT22;20485;50.992;5.550;2022-12-18T10:54:39;-4.30;99.90
33927;DHT22;20485;50.992;5.550;2022-12-18T10:57:31;-4.20;99.90
33927;DHT22;20485;50.992;5.550;2022-12-18T10:59:59;-4.10;99.90
33927;DHT22;20485;50.992;5.550;2022-12-18T11:02:42;-4.00;99.90
33927;DHT22;20485;50.992;5.550;2022-12-18T11:07:58;-3.90;99.90
33927;DHT22;20485;50.992;5.550;2022-12-18T11:10:32;-3.90;99.90
33927;DHT22;20485;50.992;5.550;2022-12-18T11:15:40;-3.80;99.90
33927;DHT22;20485;50.992;5.550;2022-12-18T11:18:22;-3.90;99.90
33927;DHT22;20485;50.992;5.550;2022-12-18T11:21:09;-3.90;99.90
33927;DHT22;20485;50.992;5.550;2022-12-18T11:23:37;-3.80;99.90
33927;DHT22;20485;50.992;5.550;2022-12-18T11:26:09;-3.70;99.90
33927;DHT22;20485;50.992;5.550;2022-12-18T11:28:40;-3.80;99.90
33927;DHT22;20485;50.992;5.550;2022-12-18T11:31:20;-3.70;99.90
33927;DHT22;20485;50.992;5.550;2022-12-18T11:33:54;-3.60;99.90
33927;DHT22;20485;50.992;5.550;2022-12-18T11:36:21;-3.60;99.90
33927;DHT22;20485;50.992;5.550;2022-12-18T11:38:49;-3.60;99.90
33927;DHT22;20485;50.992;5.550;2022-12-18T11:41:34;-3.60;99.90
33927;DHT22;20485;50.992;5.550;2022-12-18T11:44:27;-3.60;99.90
33927;DHT22;20485;50.992;5.550;2022-12-18T11:50:21;-3.50;99.90
33927;DHT22;20485;50.992;5.550;2022-12-18T11:52:49;-3.10;99.90
33927;DHT22;20485;50.992;5.550;2022-12-18T11:55:19;-3.40;99.90
33927;DHT22;20485;50.992;5.550;2022-12-18T12:00:50;-1.90;99.90
33927;DHT22;20485;50.992;5.550;2022-12-18T12:09:01;-3.00;99.90
33927;DHT22;20485;50.992;5.550;2022-12-18T12:14:19;-3.10;99.90
33927;DHT22;20485;50.992;5.550;2022-12-18T12:17:32;-3.00;99.90
33927;DHT22;20485;50.992;5.550;2022-12-18T12:20:41;-3.10;99.90
33927;DHT22;20485;50.992;5.550;2022-12-18T12:23:26;-3.00;99.90
33927;DHT22;20485;50.992;5.550;2022-12-18T12:26:15;-3.00;99.90
33927;DHT22;20485;50.992;5.550;2022-12-18T12:28:59;-2.90;99.90
33927;DHT22;20485;50.992;5.550;2022-12-18T12:40:04;-2.70;99.90
33927;DHT22;20485;50.992;5.550;2022-12-18T12:42:38;-2.60;99.90
33927;DHT22;20485;50.992;5.550;2022-12-18T12:45:40;-2.60;99.90
33927;DHT22;20485;50.992;5.550;2022-12-18T12:48:16;-2.50;99.90
33927;DHT22;20485;50.992;5.550;2022-12-18T12:50:42;-2.40;99.90
33927;DHT22;20485;50.992;5.550;2022-12-18T12:53:18;-2.40;99.90
33927;DHT22;20485;50.992;5.550;2022-12-18T12:55:46;-2.40;99.90
33927;DHT22;20485;50.992;5.550;2022-12-18T12:58:38;-2.40;99.90
33927;DHT22;20485;50.992;5.550;2022-12-18T13:07:19;-2.40;99.90
33927;DHT22;20485;50.992;5.550;2022-12-18T13:13:06;-2.30;99.90
33927;DHT22;20485;50.992;5.550;2022-12-18T13:16:04;-2.20;99.90
33927;DHT22;20485;50.992;5.550;2022-12-18T13:18:30;-2.20;99.90
33927;DHT22;20485;50.992;5.550;2022-12-18T13:25:56;-2.10;99.90
33927;DHT22;20485;50.992;5.550;2022-12-18T13:34:23;-2.00;99.90
33927;DHT22;20485;50.992;5.550;2022-12-18T13:36:50;-2.00;99.90
33927;DHT22;20485;50.992;5.550;2022-12-18T13:44:56;-2.00;99.90
33927;DHT22;20485;50.992;5.550;2022-12-18T13:47:32;-1.90;99.90
33927;DHT22;20485;50.992;5.550;2022-12-18T13:49:59;-1.80;99.90
33927;DHT22;20485;50.992;5.550;2022-12-18T13:52:34;-1.90;99.90
33927;DHT22;20485;50.992;5.550;2022-12-18T13:55:05;-1.90;99.90
33927;DHT22;20485;50.992;5.550;2022-12-18T13:57:37;-1.90;99.90
33927;DHT22;20485;50.992;5.550;2022-12-18T14:00:26;-1.90;99.90
33927;DHT22;20485;50.992;5.550;2022-12-18T14:02:54;-1.90;99.90
33927;DHT22;20485;50.992;5.550;2022-12-18T14:05:31;-1.90;99.90
33927;DHT22;20485;50.992;5.550;2022-12-18T14:08:10;-2.00;99.90
33927;DHT22;20485;50.992;5.550;2022-12-18T14:10:41;-2.00;99.90
33927;DHT22;20485;50.992;5.550;2022-12-18T14:13:09;-2.00;99.90
33927;DHT22;20485;50.992;5.550;2022-12-18T14:15:40;-2.00;99.90
33927;DHT22;20485;50.992;5.550;2022-12-18T14:20:44;-2.10;99.90
33927;DHT22;20485;50.992;5.550;2022-12-18T14:23:30;-2.10;99.90
33927;DHT22;20485;50.992;5.550;2022-12-18T14:25:57;-2.10;99.90
33927;DHT22;20485;50.992;5.550;2022-12-18T14:28:23;-2.00;99.90
33927;DHT22;20485;50.992;5.550;2022-12-18T14:30:49;-2.00;99.90
33927;DHT22;20485;50.992;5.550;2022-12-18T14:36:05;-2.10;99.90
33927;DHT22;20485;50.992;5.550;2022-12-18T14:38:39;-2.10;99.90
33927;DHT22;20485;50.992;5.550;2022-12-18T14:41:14;-2.10;99.90
33927;DHT22;20485;50.992;5.550;2022-12-18T14:43:45;-2.10;99.90
33927;DHT22;20485;50.992;5.550;2022-12-18T14:46:44;-2.10;99.90
33927;DHT22;20485;50.992;5.550;2022-12-18T14:49:32;-2.20;99.90
33927;DHT22;20485;50.992;5.550;2022-12-18T14:52:06;-2.00;99.90
33927;DHT22;20485;50.992;5.550;2022-12-18T14:54:34;-2.00;99.90
33927;DHT22;20485;50.992;5.550;2022-12-18T14:57:06;-2.10;99.90
33927;DHT22;20485;50.992;5.550;2022-12-18T14:59:40;-2.10;99.90
33927;DHT22;20485;50.992;5.550;2022-12-18T15:02:27;-2.10;99.90
33927;DHT22;20485;50.992;5.550;2022-12-18T15:07:44;-2.20;99.90
33927;DHT22;20485;50.992;5.550;2022-12-18T15:12:48;-2.20;99.90
33927;DHT22;20485;50.992;5.550;2022-12-18T15:20:54;-2.30;99.90
33927;DHT22;20485;50.992;5.550;2022-12-18T15:28:32;-2.40;99.90
33927;DHT22;20485;50.992;5.550;2022-12-18T15:33:31;-2.40;99.90
33927;DHT22;20485;50.992;5.550;2022-12-18T15:35:59;-2.50;99.90
33927;DHT22;20485;50.992;5.550;2022-12-18T15:38:26;-2.50;99.90
33927;DHT22;20485;50.992;5.550;2022-12-18T15:40:53;-2.50;99.90
33927;DHT22;20485;50.992;5.550;2022-12-18T15:43:21;-2.50;99.90
33927;DHT22;20485;50.992;5.550;2022-12-18T15:46:21;-2.50;99.90
33927;DHT22;20485;50.992;5.550;2022-12-18T15:48:52;-2.50;99.90
33927;DHT22;20485;50.992;5.550;2022-12-18T15:51:24;-2.50;99.90
33927;DHT22;20485;50.992;5.550;2022-12-18T15:53:58;-2.50;99.90
33927;DHT22;20485;50.992;5.550;2022-12-18T15:56:24;-2.50;99.90
33927;DHT22;20485;50.992;5.550;2022-12-18T15:59:11;-2.40;99.90
33927;DHT22;20485;50.992;5.550;2022-12-18T16:01:37;-2.50;99.90
33927;DHT22;20485;50.992;5.550;2022-12-18T16:04:03;-2.50;99.90
33927;DHT22;20485;50.992;5.550;2022-12-18T16:06:31;-2.50;99.90
